createdAt,value
2023-01-30T00:01:46.517Z,11.70
2023-01-30T00:04:17.146Z,12.30
2023-01-30T00:06:45.526Z,11.70
2023-01-30T00:09:17.353Z,10.10
2023-01-30T00:11:45.528Z,9.50
2023-01-30T00:14:13.737Z,9.80
2023-01-30T00:16:42.974Z,12.20
2023-01-30T00:19:11.110Z,11.50
2023-01-30T00:21:39.215Z,10.00
2023-01-30T00:24:07.775Z,13.30
2023-01-30T00:26:35.990Z,10.70
2023-01-30T00:29:04.130Z,13.40
2023-01-30T00:31:32.343Z,12.00
2023-01-30T00:34:00.467Z,10.00
2023-01-30T00:36:28.500Z,11.30
2023-01-30T00:38:58.388Z,10.20
2023-01-30T00:41:46.498Z,9.50
2023-01-30T00:44:33.162Z,10.10
2023-01-30T00:47:08.921Z,9.60
2023-01-30T00:49:38.225Z,9.40
2023-01-30T00:52:06.541Z,10.60
2023-01-30T00:54:35.029Z,8.90
2023-01-30T00:57:03.205Z,11.00
2023-01-30T00:59:31.497Z,10.30
2023-01-30T01:01:59.615Z,10.20
2023-01-30T01:04:27.903Z,10.90
2023-01-30T01:06:56.087Z,13.40
2023-01-30T01:09:24.221Z,10.70
2023-01-30T01:11:52.407Z,10.10
2023-01-30T01:14:20.466Z,11.60
2023-01-30T01:16:48.762Z,9.20
2023-01-30T01:19:16.866Z,14.20
2023-01-30T01:21:45.033Z,12.70
2023-01-30T01:24:14.859Z,11.10
2023-01-30T01:26:43.786Z,12.80
2023-01-30T01:29:13.764Z,10.50
2023-01-30T01:31:43.675Z,11.00
2023-01-30T01:34:12.487Z,9.90
2023-01-30T01:36:55.843Z,10.10
2023-01-30T01:39:24.027Z,10.10
2023-01-30T01:41:52.537Z,9.10
2023-01-30T01:44:20.657Z,9.50
2023-01-30T01:46:56.542Z,9.70
2023-01-30T01:49:37.047Z,9.20
2023-01-30T01:52:11.738Z,9.80
2023-01-30T01:54:45.084Z,11.70
2023-01-30T01:57:20.070Z,10.00
2023-01-30T02:00:05.885Z,9.90
2023-01-30T02:02:34.860Z,10.90
2023-01-30T02:05:03.920Z,11.20
2023-01-30T02:07:59.517Z,10.80
2023-01-30T02:10:51.854Z,10.10
2023-01-30T02:13:20.676Z,9.30
2023-01-30T02:15:49.724Z,10.60
2023-01-30T02:18:18.924Z,9.80
2023-01-30T02:21:31.778Z,12.30
2023-01-30T02:24:08.343Z,10.60
2023-01-30T02:27:05.000Z,10.00
2023-01-30T02:29:46.802Z,10.70
2023-01-30T02:32:26.642Z,11.90
2023-01-30T02:35:08.446Z,10.50
2023-01-30T02:37:51.537Z,9.80
2023-01-30T02:40:40.508Z,9.30
2023-01-30T02:43:23.711Z,12.20
2023-01-30T02:46:02.978Z,12.10
2023-01-30T02:48:40.070Z,13.40
2023-01-30T02:51:23.222Z,10.60
2023-01-30T02:53:51.572Z,11.40
2023-01-30T02:56:19.767Z,12.10
2023-01-30T02:59:06.251Z,10.90
2023-01-30T03:02:09.562Z,12.20
2023-01-30T03:04:58.693Z,11.00
2023-01-30T03:07:50.779Z,10.70
2023-01-30T03:10:24.788Z,11.30
2023-01-30T03:13:05.253Z,8.80
2023-01-30T03:15:44.935Z,10.40
2023-01-30T03:18:13.259Z,10.90
2023-01-30T03:20:41.728Z,11.00
2023-01-30T03:23:10.215Z,10.90
2023-01-30T03:25:41.579Z,10.20
2023-01-30T03:28:11.109Z,12.90
2023-01-30T03:30:39.401Z,15.80
2023-01-30T03:33:07.592Z,11.00
2023-01-30T03:35:36.155Z,12.80
2023-01-30T03:38:04.705Z,12.00
2023-01-30T03:40:33.186Z,9.70
2023-01-30T03:43:01.261Z,11.60
2023-01-30T03:45:29.309Z,9.70
2023-01-30T03:47:57.336Z,11.30
2023-01-30T03:50:25.459Z,11.90
2023-01-30T03:52:54.278Z,9.10
2023-01-30T03:55:22.331Z,11.10
2023-01-30T03:57:55.627Z,12.40
2023-01-30T04:00:23.999Z,10.50
2023-01-30T04:02:52.186Z,11.70
2023-01-30T04:05:20.641Z,12.70
2023-01-30T04:07:48.930Z,12.90
2023-01-30T04:10:20.046Z,11.50
2023-01-30T04:12:48.327Z,11.00
2023-01-30T04:15:16.844Z,10.00
2023-01-30T04:17:45.159Z,10.80
2023-01-30T04:20:13.286Z,13.00
2023-01-30T04:22:41.397Z,11.00
2023-01-30T04:25:09.733Z,12.70
2023-01-30T04:27:37.928Z,11.80
2023-01-30T04:30:06.599Z,11.20
2023-01-30T04:32:34.750Z,11.50
2023-01-30T04:35:02.945Z,12.70
2023-01-30T04:37:31.948Z,11.70
2023-01-30T04:40:00.046Z,10.90
2023-01-30T04:42:28.199Z,11.50
2023-01-30T04:44:56.236Z,9.40
2023-01-30T04:47:24.393Z,11.10
2023-01-30T04:49:52.491Z,12.20
2023-01-30T04:52:20.655Z,10.90
2023-01-30T04:54:48.733Z,16.60
2023-01-30T04:57:16.916Z,12.00
2023-01-30T04:59:45.020Z,12.30
2023-01-30T05:02:13.311Z,12.60
2023-01-30T05:04:41.744Z,12.10
2023-01-30T05:07:10.092Z,12.90
2023-01-30T05:09:38.107Z,10.50
2023-01-30T05:12:06.349Z,11.60
2023-01-30T05:14:35.638Z,9.10
2023-01-30T05:17:03.738Z,10.50
2023-01-30T05:19:31.776Z,10.40
2023-01-30T05:21:59.881Z,8.90
2023-01-30T05:24:27.933Z,10.60
2023-01-30T05:26:55.998Z,10.90
2023-01-30T05:29:24.064Z,10.70
2023-01-30T05:31:52.167Z,10.10
2023-01-30T05:34:20.361Z,12.00
2023-01-30T05:36:48.773Z,13.60
2023-01-30T05:39:16.939Z,9.70
2023-01-30T05:41:45.110Z,11.60
2023-01-30T05:44:13.154Z,12.10
2023-01-30T05:46:41.307Z,11.30
2023-01-30T05:49:09.431Z,11.00
2023-01-30T05:51:37.503Z,14.20
2023-01-30T05:54:05.657Z,11.00
2023-01-30T05:56:33.686Z,13.50
2023-01-30T05:59:02.126Z,12.10
2023-01-30T06:01:30.780Z,13.10
2023-01-30T06:03:59.207Z,12.40
2023-01-30T06:06:27.391Z,15.30
2023-01-30T06:08:56.602Z,11.80
2023-01-30T06:11:24.844Z,13.10
2023-01-30T06:13:52.942Z,12.70
2023-01-30T06:16:21.420Z,12.60
2023-01-30T06:18:49.553Z,12.60
2023-01-30T06:21:17.801Z,14.10
2023-01-30T06:23:46.601Z,13.50
2023-01-30T06:26:14.871Z,12.80
2023-01-30T06:28:43.196Z,15.10
2023-01-30T06:31:11.772Z,10.90
2023-01-30T06:33:39.909Z,12.10
2023-01-30T06:36:08.381Z,12.30
2023-01-30T06:38:36.607Z,12.20
2023-01-30T06:41:04.803Z,13.80
2023-01-30T06:43:32.908Z,11.10
2023-01-30T06:46:01.141Z,12.40
2023-01-30T06:48:29.301Z,11.90
2023-01-30T06:50:57.412Z,12.40
2023-01-30T06:53:30.435Z,10.50
2023-01-30T06:55:59.631Z,11.80
2023-01-30T06:58:28.336Z,11.80
2023-01-30T07:00:56.518Z,10.40
2023-01-30T07:03:24.660Z,10.60
2023-01-30T07:05:52.871Z,12.10
2023-01-30T07:08:23.243Z,11.00
2023-01-30T07:10:52.296Z,11.10
2023-01-30T07:13:20.723Z,9.70
2023-01-30T07:15:48.867Z,10.00
2023-01-30T07:18:17.071Z,11.10
2023-01-30T07:20:49.808Z,14.90
2023-01-30T07:23:18.257Z,12.00
2023-01-30T07:25:46.427Z,12.50
2023-01-30T07:28:14.500Z,12.10
2023-01-30T07:30:43.011Z,10.20
2023-01-30T07:33:11.254Z,13.10
2023-01-30T07:35:39.410Z,11.70
2023-01-30T07:38:07.700Z,10.00
2023-01-30T07:40:35.908Z,10.80
2023-01-30T07:43:06.454Z,10.60
2023-01-30T07:45:46.362Z,10.50
2023-01-30T07:48:17.114Z,9.80
2023-01-30T07:50:45.985Z,14.90
2023-01-30T07:53:18.625Z,10.00
2023-01-30T07:55:46.701Z,11.40
2023-01-30T07:58:16.125Z,10.70
2023-01-30T08:00:44.438Z,11.00
2023-01-30T08:03:17.327Z,14.30
2023-01-30T08:05:48.587Z,11.20
2023-01-30T08:08:16.980Z,9.50
2023-01-30T08:10:45.366Z,11.20
2023-01-30T08:13:13.469Z,13.00
2023-01-30T08:15:41.706Z,9.60
2023-01-30T08:18:09.772Z,11.40
2023-01-30T08:20:37.905Z,10.90
2023-01-30T08:23:06.347Z,11.60
2023-01-30T08:25:35.719Z,13.30
2023-01-30T08:28:04.647Z,12.00
2023-01-30T08:30:32.868Z,11.30
2023-01-30T08:33:00.890Z,12.90
2023-01-30T08:35:29.018Z,13.00
2023-01-30T08:37:57.088Z,10.90
2023-01-30T08:40:25.245Z,10.20
2023-01-30T08:42:53.289Z,8.60
2023-01-30T08:45:21.351Z,9.20
2023-01-30T08:47:49.437Z,11.70
2023-01-30T08:50:17.902Z,10.50
2023-01-30T08:52:46.098Z,10.20
2023-01-30T08:55:14.347Z,9.90
2023-01-30T08:57:42.495Z,10.70
2023-01-30T09:00:11.768Z,9.40
2023-01-30T09:02:40.935Z,9.00
2023-01-30T09:05:11.202Z,9.50
2023-01-30T09:07:39.464Z,10.90
2023-01-30T09:10:08.072Z,9.60
2023-01-30T09:12:36.280Z,10.00
2023-01-30T09:15:04.887Z,9.00
2023-01-30T09:17:32.978Z,13.70
2023-01-30T09:20:01.242Z,8.90
2023-01-30T09:22:29.317Z,9.20
2023-01-30T09:24:59.144Z,8.20
2023-01-30T09:27:27.243Z,11.50
2023-01-30T09:29:55.315Z,8.40
2023-01-30T09:32:23.754Z,18.00
2023-01-30T09:34:51.894Z,10.00
2023-01-30T09:37:19.976Z,9.30
2023-01-30T09:39:48.120Z,10.00
2023-01-30T09:42:36.519Z,9.40
2023-01-30T09:45:17.653Z,7.30
2023-01-30T09:47:52.567Z,8.20
2023-01-30T09:50:53.433Z,9.80
2023-01-30T09:53:40.768Z,9.00
2023-01-30T09:56:08.889Z,9.20
2023-01-30T09:58:58.531Z,11.50
2023-01-30T10:01:51.106Z,8.70
2023-01-30T10:04:27.533Z,11.40
2023-01-30T10:07:10.512Z,7.70
2023-01-30T10:09:55.502Z,8.90
2023-01-30T10:12:51.383Z,10.00
2023-01-30T10:15:30.097Z,10.80
2023-01-30T10:18:39.555Z,8.00
2023-01-30T10:21:30.511Z,9.90
2023-01-30T10:24:04.766Z,10.00
2023-01-30T10:26:33.869Z,9.80
2023-01-30T10:29:17.094Z,14.10
2023-01-30T10:31:51.151Z,11.80
2023-01-30T10:34:24.716Z,10.20
2023-01-30T10:37:10.002Z,11.40
2023-01-30T10:39:55.406Z,11.70
2023-01-30T10:42:34.771Z,10.60
2023-01-30T10:45:13.478Z,10.60
2023-01-30T10:47:56.434Z,10.00
2023-01-30T10:50:45.688Z,9.10
2023-01-30T10:53:33.148Z,10.60
2023-01-30T10:56:05.293Z,10.70
2023-01-30T10:59:00.695Z,12.10
2023-01-30T11:02:09.765Z,10.30
2023-01-30T11:04:48.683Z,10.80
2023-01-30T11:07:17.006Z,10.60
2023-01-30T11:09:47.405Z,12.40
2023-01-30T11:12:15.932Z,9.30
2023-01-30T11:14:58.832Z,12.80
2023-01-30T11:17:32.639Z,10.40
2023-01-30T11:20:24.401Z,11.50
2023-01-30T11:23:05.565Z,14.90
2023-01-30T11:25:49.230Z,12.40
2023-01-30T11:28:19.697Z,12.50
2023-01-30T11:30:54.860Z,12.10
2023-01-30T11:33:24.968Z,11.10
2023-01-30T11:35:57.674Z,10.90
2023-01-30T11:38:32.273Z,10.50
2023-01-30T11:41:20.559Z,11.80
2023-01-30T11:43:48.736Z,12.60
2023-01-30T11:46:20.021Z,11.90
2023-01-30T11:49:03.127Z,13.00
2023-01-30T11:51:47.241Z,14.60
2023-01-30T11:54:20.146Z,10.90
2023-01-30T11:56:57.235Z,11.90
2023-01-30T11:59:30.777Z,11.30
2023-01-30T12:05:45.212Z,12.80
2023-01-30T12:08:39.462Z,11.20
2023-01-30T12:11:42.688Z,11.20
2023-01-30T12:14:32.662Z,14.40
2023-01-30T12:17:26.752Z,12.50
2023-01-30T12:20:06.306Z,13.30
2023-01-30T12:22:43.802Z,13.20
2023-01-30T12:25:27.019Z,12.90
2023-01-30T12:28:03.096Z,11.30
2023-01-30T12:30:41.077Z,12.30
2023-01-30T12:33:15.818Z,14.50
2023-01-30T12:35:44.500Z,15.40
2023-01-30T12:38:43.604Z,12.30
2023-01-30T12:41:29.180Z,10.90
2023-01-30T12:44:03.548Z,12.20
2023-01-30T12:46:41.398Z,13.00
2023-01-30T12:49:39.062Z,11.70
2023-01-30T12:52:30.714Z,11.20
2023-01-30T12:55:10.437Z,12.60
2023-01-30T12:57:53.799Z,14.20
2023-01-30T13:00:30.333Z,16.80
2023-01-30T13:03:22.265Z,16.30
2023-01-30T13:05:57.589Z,15.20
2023-01-30T13:09:03.578Z,16.50
2023-01-30T13:12:16.492Z,14.70
2023-01-30T13:15:03.627Z,13.10
2023-01-30T13:17:37.683Z,14.20
2023-01-30T13:20:17.071Z,15.40
2023-01-30T13:23:00.598Z,17.40
2023-01-30T13:26:03.278Z,15.70
2023-01-30T13:28:45.274Z,15.80
2023-01-30T13:31:18.938Z,16.70
2023-01-30T13:33:51.061Z,13.00
2023-01-30T13:36:27.620Z,15.60
2023-01-30T13:39:09.526Z,16.20
2023-01-30T13:41:42.788Z,14.90
2023-01-30T13:44:33.821Z,15.00
2023-01-30T13:47:15.312Z,15.30
2023-01-30T13:49:53.005Z,16.50
2023-01-30T13:52:36.146Z,16.70
2023-01-30T13:55:14.956Z,16.50
2023-01-30T13:57:50.925Z,16.40
2023-01-30T14:00:34.094Z,15.20
2023-01-30T14:03:08.758Z,14.50
2023-01-30T14:06:25.779Z,13.70
2023-01-30T14:08:59.509Z,14.60
2023-01-30T14:12:01.064Z,14.50
2023-01-30T14:14:40.889Z,13.40
2023-01-30T14:17:16.038Z,16.20
2023-01-30T14:20:07.242Z,13.90
2023-01-30T14:22:47.908Z,18.90
2023-01-30T14:25:28.612Z,17.60
2023-01-30T14:27:59.957Z,19.60
2023-01-30T14:30:31.804Z,18.20
2023-01-30T14:33:02.327Z,19.50
2023-01-30T14:35:33.707Z,19.20
2023-01-30T14:38:14.670Z,17.10
2023-01-30T14:41:26.261Z,15.90
2023-01-30T14:43:54.783Z,17.40
2023-01-30T14:46:23.345Z,17.70
2023-01-30T14:49:01.305Z,30.80
2023-01-30T14:51:50.057Z,16.50
2023-01-30T14:54:18.131Z,14.60
2023-01-30T14:57:01.984Z,16.90
2023-01-30T14:59:33.462Z,16.20
2023-01-30T15:02:06.889Z,22.50
2023-01-30T15:04:51.892Z,16.80
2023-01-30T15:07:38.805Z,17.30
2023-01-30T15:10:14.163Z,16.00
2023-01-30T15:12:48.155Z,18.30
2023-01-30T15:15:54.939Z,16.20
2023-01-30T15:19:04.172Z,19.30
2023-01-30T15:22:01.738Z,17.70
2023-01-30T15:24:32.842Z,18.10
2023-01-30T15:27:04.242Z,22.90
2023-01-30T15:30:06.622Z,18.40
2023-01-30T15:32:35.025Z,17.40
2023-01-30T15:35:21.713Z,17.00
2023-01-30T15:37:51.411Z,19.90
2023-01-30T15:40:24.091Z,15.90
2023-01-30T15:43:01.482Z,16.90
2023-01-30T15:46:05.342Z,17.90
2023-01-30T15:48:55.173Z,19.00
2023-01-30T15:51:27.954Z,13.80
2023-01-30T15:53:58.399Z,18.20
2023-01-30T15:56:29.525Z,18.50
2023-01-30T15:59:02.717Z,17.30
2023-01-30T16:01:31.648Z,17.00
2023-01-30T16:04:00.713Z,21.30
2023-01-30T16:06:29.099Z,16.90
2023-01-30T16:09:04.031Z,18.80
2023-01-30T16:11:34.519Z,20.40
2023-01-30T16:14:02.729Z,19.00
2023-01-30T16:16:34.971Z,18.80
2023-01-30T16:19:06.970Z,23.30
2023-01-30T16:21:43.350Z,17.00
2023-01-30T16:24:22.758Z,21.40
2023-01-30T16:27:00.755Z,17.70
2023-01-30T16:29:33.568Z,19.70
2023-01-30T16:32:02.205Z,18.50
2023-01-30T16:34:32.459Z,21.50
2023-01-30T16:37:19.168Z,28.80
2023-01-30T16:40:09.358Z,20.10
2023-01-30T16:42:38.142Z,20.00
2023-01-30T16:45:19.745Z,19.00
2023-01-30T16:47:48.318Z,19.80
2023-01-30T16:50:23.345Z,16.80
2023-01-30T16:52:53.669Z,21.00
2023-01-30T16:55:24.951Z,19.50
2023-01-30T16:58:02.961Z,21.40
2023-01-30T17:00:33.763Z,22.10
2023-01-30T17:05:59.246Z,24.30
2023-01-30T17:08:46.128Z,20.60
2023-01-30T17:11:40.252Z,23.60
2023-01-30T17:14:24.551Z,24.40
2023-01-30T17:17:04.045Z,22.80
2023-01-30T17:19:32.776Z,20.90
2023-01-30T17:22:05.557Z,26.80
2023-01-30T17:24:36.389Z,27.10
2023-01-30T17:27:05.079Z,23.20
2023-01-30T17:29:42.385Z,22.90
2023-01-30T17:32:13.793Z,21.40
2023-01-30T17:34:42.101Z,21.30
2023-01-30T17:37:16.072Z,18.90
2023-01-30T17:39:44.903Z,18.80
2023-01-30T17:42:14.578Z,21.80
2023-01-30T17:44:42.993Z,21.90
2023-01-30T17:47:12.150Z,21.40
2023-01-30T17:49:40.695Z,20.40
2023-01-30T17:52:09.560Z,19.30
2023-01-30T17:54:37.839Z,20.20
2023-01-30T17:57:09.952Z,19.30
2023-01-30T17:59:38.172Z,23.10
2023-01-30T18:02:07.197Z,19.30
2023-01-30T18:04:35.363Z,21.00
2023-01-30T18:07:06.625Z,19.70
2023-01-30T18:09:34.864Z,22.10
2023-01-30T18:12:03.449Z,25.90
2023-01-30T18:14:32.253Z,26.20
2023-01-30T18:17:01.881Z,24.60
2023-01-30T18:19:31.919Z,26.30
2023-01-30T18:22:00.454Z,21.60
2023-01-30T18:24:28.866Z,21.90
2023-01-30T18:27:01.496Z,23.50
2023-01-30T18:29:31.011Z,22.90
2023-01-30T18:32:05.247Z,21.80
2023-01-30T18:34:33.819Z,20.90
2023-01-30T18:37:02.301Z,21.30
2023-01-30T18:39:32.241Z,28.80
2023-01-30T18:42:02.363Z,25.60
2023-01-30T18:44:30.723Z,24.40
2023-01-30T18:46:59.083Z,22.10
2023-01-30T18:49:27.461Z,21.80
2023-01-30T18:51:55.748Z,27.30
2023-01-30T18:54:24.030Z,23.40
2023-01-30T18:56:52.398Z,24.50
2023-01-30T18:59:20.796Z,23.50
2023-01-30T19:01:49.769Z,22.70
2023-01-30T19:04:18.778Z,20.60
2023-01-30T19:06:47.138Z,20.00
2023-01-30T19:09:18.400Z,22.80
2023-01-30T19:12:05.206Z,18.80
2023-01-30T19:14:33.481Z,18.40
2023-01-30T19:17:01.860Z,17.80
2023-01-30T19:19:30.131Z,16.20
2023-01-30T19:21:58.427Z,15.80
2023-01-30T19:24:27.198Z,13.80
2023-01-30T19:26:55.447Z,21.00
2023-01-30T19:29:23.954Z,18.70
2023-01-30T19:31:52.524Z,17.10
2023-01-30T19:34:20.922Z,19.50
2023-01-30T19:36:49.408Z,16.40
2023-01-30T19:39:17.983Z,15.40
2023-01-30T19:41:46.160Z,15.80
2023-01-30T19:44:14.746Z,16.10
2023-01-30T19:46:43.464Z,16.00
2023-01-30T19:49:12.419Z,18.90
2023-01-30T19:51:42.133Z,17.00
2023-01-30T19:54:12.330Z,18.40
2023-01-30T19:56:42.797Z,16.60
2023-01-30T19:59:13.136Z,16.60
2023-01-30T20:01:41.744Z,20.60
2023-01-30T20:04:10.080Z,16.20
2023-01-30T20:06:43.546Z,13.70
2023-01-30T20:09:11.875Z,16.80
2023-01-30T20:11:42.043Z,17.40
2023-01-30T20:14:11.376Z,18.80
2023-01-30T20:16:40.385Z,16.30
2023-01-30T20:19:14.477Z,17.50
2023-01-30T20:21:43.883Z,21.00
2023-01-30T20:24:14.006Z,19.40
2023-01-30T20:26:43.152Z,15.30
2023-01-30T20:29:12.390Z,20.60
2023-01-30T20:31:41.329Z,15.60
2023-01-30T20:34:13.250Z,18.30
2023-01-30T20:36:41.632Z,16.10
2023-01-30T20:39:10.217Z,16.90
2023-01-30T20:41:38.916Z,15.70
2023-01-30T20:44:09.125Z,16.70
2023-01-30T20:46:41.787Z,20.50
2023-01-30T20:49:18.992Z,16.70
2023-01-30T20:51:50.489Z,15.90
2023-01-30T20:54:20.944Z,18.20
2023-01-30T20:56:52.502Z,20.30
2023-01-30T20:59:27.532Z,16.80
2023-01-30T21:01:55.941Z,22.10
2023-01-30T21:04:24.875Z,20.60
2023-01-30T21:06:53.418Z,16.40
2023-01-30T21:09:23.535Z,16.20
2023-01-30T21:11:53.476Z,15.50
2023-01-30T21:14:22.697Z,18.00
2023-01-30T21:16:51.602Z,19.30
2023-01-30T21:19:20.139Z,15.40
2023-01-30T21:21:53.955Z,21.20
2023-01-30T21:24:28.736Z,20.30
2023-01-30T21:26:57.784Z,17.60
2023-01-30T21:29:27.970Z,24.50
2023-01-30T21:31:57.676Z,20.00
2023-01-30T21:34:25.965Z,18.00
2023-01-30T21:37:13.181Z,19.40
2023-01-30T21:40:00.404Z,18.10
2023-01-30T21:42:47.827Z,15.90
2023-01-30T21:45:16.442Z,16.40
2023-01-30T21:47:44.896Z,19.30
2023-01-30T21:50:13.274Z,20.00
2023-01-30T21:52:41.563Z,21.40
2023-01-30T21:55:10.044Z,21.80
2023-01-30T21:57:38.985Z,20.40
2023-01-30T22:00:08.541Z,23.10
2023-01-30T22:02:36.910Z,18.50
2023-01-30T22:05:06.105Z,21.60
2023-01-30T22:07:34.391Z,18.80
2023-01-30T22:10:02.996Z,21.10
2023-01-30T22:12:32.577Z,19.40
2023-01-30T22:15:00.960Z,21.60
2023-01-30T22:17:29.545Z,18.60
2023-01-30T22:19:58.137Z,18.40
2023-01-30T22:22:26.541Z,24.60
2023-01-30T22:24:54.858Z,22.90
2023-01-30T22:27:23.269Z,21.50
2023-01-30T22:29:51.718Z,20.60
2023-01-30T22:32:20.228Z,18.90
2023-01-30T22:34:48.604Z,18.20
2023-01-30T22:37:16.914Z,23.80
2023-01-30T22:39:45.366Z,17.80
2023-01-30T22:42:14.045Z,22.70
2023-01-30T22:44:42.355Z,20.30
2023-01-30T22:47:10.583Z,17.90
2023-01-30T22:49:39.606Z,19.30
2023-01-30T22:52:07.976Z,16.80
2023-01-30T22:54:36.252Z,19.10
2023-01-30T22:57:04.632Z,16.20
2023-01-30T22:59:32.937Z,17.90
2023-01-30T23:02:01.471Z,18.20
2023-01-30T23:04:29.871Z,17.50
2023-01-30T23:06:59.801Z,21.30
2023-01-30T23:09:28.174Z,19.30
2023-01-30T23:12:17.136Z,21.70
2023-01-30T23:14:46.231Z,18.40
2023-01-30T23:17:33.249Z,19.20
2023-01-30T23:20:01.627Z,17.70
2023-01-30T23:22:29.891Z,20.70
2023-01-30T23:24:58.254Z,22.00
2023-01-30T23:27:27.600Z,23.90
2023-01-30T23:29:56.052Z,22.20
2023-01-30T23:32:25.150Z,21.70
2023-01-30T23:34:53.432Z,22.30
2023-01-30T23:37:44.749Z,18.50
2023-01-30T23:42:41.100Z,19.20
2023-01-30T23:45:10.000Z,20.30
2023-01-30T23:47:38.789Z,16.60
2023-01-30T23:50:07.700Z,17.90
2023-01-30T23:52:36.318Z,16.90
2023-01-30T23:55:05.865Z,15.90
2023-01-30T23:57:34.027Z,19.90
